createdAt,value
2023-07-04T00:00:52.944Z,3.00
2023-07-04T00:01:56.069Z,2.57
2023-07-04T00:02:59.067Z,2.00
2023-07-04T00:04:01.822Z,2.17
2023-07-04T00:05:04.762Z,2.00
2023-07-04T00:06:07.748Z,2.00
2023-07-04T00:07:10.643Z,2.00
2023-07-04T00:08:13.598Z,2.00
2023-07-04T00:09:16.456Z,2.00
2023-07-04T00:10:19.245Z,3.00
2023-07-04T00:11:22.141Z,2.14
2023-07-04T00:12:25.229Z,1.33
2023-07-04T00:13:28.003Z,2.00
2023-07-04T00:14:31.096Z,1.57
2023-07-04T00:15:34.020Z,1.00
2023-07-04T00:16:37.111Z,1.00
2023-07-04T00:17:40.213Z,1.43
2023-07-04T00:18:43.344Z,2.00
2023-07-04T00:19:46.144Z,2.00
2023-07-04T00:20:48.985Z,2.00
2023-07-04T00:21:54.436Z,2.00
2023-07-04T00:23:00.147Z,2.00
2023-07-04T00:24:02.909Z,1.75
2023-07-04T00:25:08.484Z,1.00
2023-07-04T00:26:14.049Z,1.75
2023-07-04T00:27:16.800Z,1.00
2023-07-04T00:28:19.478Z,1.33
2023-07-04T00:29:24.944Z,2.00
2023-07-04T00:30:27.741Z,2.00
2023-07-04T00:31:30.515Z,1.86
2023-07-04T00:32:33.534Z,2.00
2023-07-04T00:33:38.786Z,2.00
2023-07-04T00:34:53.436Z,1.50
2023-07-04T00:35:56.352Z,1.00
2023-07-04T00:36:59.282Z,1.00
2023-07-04T00:38:04.542Z,1.33
2023-07-04T00:39:07.106Z,1.50
2023-07-04T00:40:09.988Z,1.00
2023-07-04T00:41:15.280Z,1.00
2023-07-04T00:42:20.985Z,1.50
2023-07-04T00:43:26.548Z,2.00
2023-07-04T00:44:29.209Z,1.00
2023-07-04T00:45:31.920Z,1.00
2023-07-04T00:46:37.469Z,1.00
2023-07-04T00:47:40.312Z,0.50
2023-07-04T00:48:45.682Z,1.00
2023-07-04T00:49:51.249Z,1.00
2023-07-04T00:50:56.494Z,2.00
2023-07-04T00:52:02.168Z,2.00
2023-07-04T00:53:05.168Z,1.50
2023-07-04T00:54:08.329Z,1.00
2023-07-04T00:55:11.204Z,1.00
2023-07-04T00:56:14.203Z,1.43
2023-07-04T00:57:22.761Z,1.67
2023-07-04T00:58:25.603Z,1.00
2023-07-04T00:59:28.544Z,1.67
2023-07-04T01:00:31.422Z,1.00
2023-07-04T01:01:36.859Z,1.00
2023-07-04T01:02:42.638Z,1.00
2023-07-04T01:03:45.671Z,1.00
2023-07-04T01:04:48.615Z,1.67
2023-07-04T01:05:54.453Z,1.33
2023-07-04T01:06:57.529Z,0.00
2023-07-04T01:08:03.128Z,0.43
2023-07-04T01:09:08.593Z,1.00
2023-07-04T01:10:14.007Z,1.00
2023-07-04T01:11:19.356Z,1.00
2023-07-04T01:12:22.232Z,1.00
2023-07-04T01:13:25.147Z,1.00
2023-07-04T01:14:28.043Z,0.57
2023-07-04T01:15:33.473Z,0.50
2023-07-04T01:16:39.322Z,0.88
2023-07-04T01:17:44.847Z,1.00
2023-07-04T01:18:50.403Z,1.00
2023-07-04T01:19:53.132Z,1.00
2023-07-04T01:20:55.801Z,1.00
2023-07-04T01:22:01.337Z,1.00
2023-07-04T01:23:04.017Z,0.37
2023-07-04T01:24:09.841Z,0.00
2023-07-04T01:25:15.686Z,0.50
2023-07-04T01:26:21.196Z,0.50
2023-07-04T01:27:23.824Z,0.00
2023-07-04T01:28:26.506Z,0.00
2023-07-04T01:29:32.303Z,0.33
2023-07-04T01:30:34.955Z,0.00
2023-07-04T01:31:40.654Z,0.33
2023-07-04T01:32:46.279Z,0.88
2023-07-04T01:33:48.981Z,1.00
2023-07-04T01:34:51.684Z,0.17
2023-07-04T01:35:54.395Z,0.00
2023-07-04T01:37:03.145Z,0.00
2023-07-04T01:38:06.405Z,0.00
2023-07-04T01:39:09.387Z,0.00
2023-07-04T01:40:12.322Z,0.00
2023-07-04T01:41:18.034Z,0.00
2023-07-04T01:42:21.049Z,0.00
2023-07-04T01:43:26.629Z,0.00
2023-07-04T01:44:29.499Z,0.00
2023-07-04T01:45:32.499Z,0.33
2023-07-04T01:46:35.148Z,1.00
2023-07-04T01:47:43.682Z,0.67
2023-07-04T01:48:49.159Z,0.00
2023-07-04T01:49:52.153Z,0.00
2023-07-04T01:50:55.242Z,0.00
2023-07-04T01:51:58.364Z,0.00
2023-07-04T01:53:04.110Z,0.00
2023-07-04T01:54:09.968Z,0.00
2023-07-04T01:55:12.788Z,0.00
2023-07-04T01:56:18.502Z,0.00
2023-07-04T01:57:21.398Z,0.00
2023-07-04T01:58:24.316Z,0.00
2023-07-04T01:59:29.749Z,0.00
2023-07-04T02:00:35.242Z,0.00
2023-07-04T02:01:38.235Z,0.00
2023-07-04T02:02:41.057Z,0.00
2023-07-04T02:03:50.048Z,0.00
2023-07-04T02:04:52.948Z,0.00
2023-07-04T02:05:55.825Z,0.00
2023-07-04T02:06:58.714Z,0.00
2023-07-04T02:08:04.496Z,0.00
2023-07-04T02:09:07.661Z,0.00
2023-07-04T02:10:16.438Z,0.00
2023-07-04T02:11:19.143Z,0.00
2023-07-04T02:12:21.908Z,0.00
2023-07-04T02:13:24.568Z,0.00
2023-07-04T02:14:30.267Z,0.00
2023-07-04T02:15:32.946Z,0.00
2023-07-04T02:16:41.462Z,0.00
2023-07-04T02:17:46.966Z,0.00
2023-07-04T02:18:49.607Z,0.00
2023-07-04T02:19:52.293Z,0.00
2023-07-04T02:20:55.064Z,0.00
2023-07-04T02:22:00.943Z,0.00
2023-07-04T02:23:06.662Z,0.00
2023-07-04T02:24:12.129Z,0.00
2023-07-04T02:25:17.622Z,0.00
2023-07-04T02:26:20.546Z,0.00
2023-07-04T02:27:23.422Z,0.00
2023-07-04T02:28:26.478Z,0.00
2023-07-04T02:29:32.104Z,0.00
2023-07-04T02:30:37.844Z,0.00
2023-07-04T02:31:46.379Z,0.00
2023-07-04T02:32:51.907Z,0.00
2023-07-04T02:33:54.837Z,0.00
2023-07-04T02:34:57.764Z,0.00
2023-07-04T02:36:03.533Z,0.00
2023-07-04T02:37:06.537Z,0.00
2023-07-04T02:38:12.001Z,0.00
2023-07-04T02:39:14.930Z,0.00
2023-07-04T02:40:17.838Z,0.00
2023-07-04T02:41:23.586Z,0.00
2023-07-04T02:42:29.055Z,0.00
2023-07-04T02:43:32.033Z,0.00
2023-07-04T02:44:35.138Z,0.00
2023-07-04T02:45:37.809Z,0.00
2023-07-04T02:46:43.488Z,0.00
2023-07-04T02:47:49.059Z,0.00
2023-07-04T02:48:54.520Z,0.13
2023-07-04T02:49:59.997Z,0.50
2023-07-04T02:51:05.469Z,0.50
2023-07-04T02:52:08.427Z,0.50
2023-07-04T02:53:11.331Z,0.00
2023-07-04T02:54:14.098Z,0.67
2023-07-04T02:55:16.984Z,0.43
2023-07-04T02:56:25.640Z,0.67
2023-07-04T02:57:28.590Z,0.50
2023-07-04T02:58:31.235Z,0.83
2023-07-04T02:59:36.600Z,0.67
2023-07-04T03:00:42.148Z,0.00
2023-07-04T03:01:44.862Z,0.00
2023-07-04T03:02:50.399Z,0.33
2023-07-04T03:03:53.329Z,1.00
2023-07-04T03:05:02.199Z,0.00
2023-07-04T03:06:04.862Z,0.00
2023-07-04T03:07:07.532Z,0.33
2023-07-04T03:08:12.993Z,0.50
2023-07-04T03:09:15.675Z,0.37
2023-07-04T03:10:21.352Z,0.00
2023-07-04T03:11:26.808Z,0.00
2023-07-04T03:12:32.688Z,0.00
2023-07-04T03:13:35.718Z,0.00
2023-07-04T03:14:38.806Z,0.43
2023-07-04T03:15:41.811Z,1.00
2023-07-04T03:16:47.553Z,1.00
2023-07-04T03:17:53.067Z,0.37
2023-07-04T03:18:58.542Z,0.50
2023-07-04T03:20:01.459Z,1.00
2023-07-04T03:21:04.353Z,0.67
2023-07-04T03:22:07.358Z,0.86
2023-07-04T03:23:12.795Z,1.33
2023-07-04T03:24:18.279Z,1.00
2023-07-04T03:25:23.808Z,1.00
2023-07-04T03:26:29.413Z,1.00
2023-07-04T03:27:34.864Z,1.00
2023-07-04T03:28:37.699Z,1.37
2023-07-04T03:29:40.380Z,1.29
2023-07-04T03:30:43.080Z,1.00
2023-07-04T03:31:48.877Z,1.33
2023-07-04T03:32:54.366Z,2.00
2023-07-04T03:33:59.885Z,2.00
2023-07-04T03:35:14.492Z,2.00
2023-07-04T03:36:19.878Z,2.00
2023-07-04T03:37:22.704Z,2.00
2023-07-04T03:38:25.664Z,1.57
2023-07-04T03:39:31.092Z,1.00
2023-07-04T03:40:36.553Z,1.00
2023-07-04T03:41:42.318Z,1.12
2023-07-04T03:42:45.083Z,1.87
2023-07-04T03:43:47.793Z,2.00
2023-07-04T03:44:50.439Z,2.00
2023-07-04T03:45:56.142Z,2.00
2023-07-04T03:47:01.635Z,2.00
2023-07-04T03:48:07.528Z,2.12
2023-07-04T03:49:13.326Z,2.00
2023-07-04T03:50:16.216Z,1.37
2023-07-04T03:51:19.055Z,1.50
2023-07-04T03:52:22.089Z,2.00
2023-07-04T03:53:27.825Z,2.00
2023-07-04T03:54:30.777Z,1.50
2023-07-04T03:55:36.239Z,1.86
2023-07-04T03:56:39.292Z,2.00
2023-07-04T03:57:42.357Z,2.00
2023-07-04T03:58:47.863Z,2.00
2023-07-04T03:59:53.372Z,2.50
2023-07-04T04:00:58.810Z,1.62
2023-07-04T04:02:01.848Z,2.00
2023-07-04T04:03:04.880Z,2.00
2023-07-04T04:04:07.886Z,2.00
2023-07-04T04:05:13.416Z,2.00
2023-07-04T04:06:18.940Z,2.00
2023-07-04T04:07:22.111Z,2.37
2023-07-04T04:08:25.080Z,2.00
2023-07-04T04:09:27.899Z,2.33
2023-07-04T04:10:33.463Z,2.67
2023-07-04T04:11:38.927Z,2.50
2023-07-04T04:12:44.391Z,1.87
2023-07-04T04:13:49.880Z,2.00
2023-07-04T04:14:52.980Z,2.50
2023-07-04T04:15:55.956Z,2.67
2023-07-04T04:16:58.916Z,2.00
2023-07-04T04:18:04.722Z,2.33
2023-07-04T04:19:10.222Z,2.37
2023-07-04T04:20:15.677Z,2.75
2023-07-04T04:21:18.626Z,2.50
2023-07-04T04:22:21.652Z,3.00
2023-07-04T04:23:24.525Z,3.00
2023-07-04T04:24:30.181Z,2.67
2023-07-04T04:25:33.086Z,2.00
2023-07-04T04:26:41.664Z,2.00
2023-07-04T04:27:44.674Z,2.00
2023-07-04T04:28:47.656Z,2.00
2023-07-04T04:29:50.342Z,3.00
2023-07-04T04:30:56.212Z,3.33
2023-07-04T04:32:01.881Z,3.00
2023-07-04T04:33:04.537Z,2.50
2023-07-04T04:34:10.298Z,2.67
2023-07-04T04:35:12.976Z,2.00
2023-07-04T04:36:15.677Z,2.00
2023-07-04T04:37:21.150Z,2.00
2023-07-04T04:38:26.887Z,1.50
2023-07-04T04:39:32.349Z,2.00
2023-07-04T04:40:37.874Z,2.00
2023-07-04T04:41:40.542Z,2.00
2023-07-04T04:42:43.194Z,2.00
2023-07-04T04:43:45.854Z,2.00
2023-07-04T04:44:51.441Z,2.00
2023-07-04T04:45:54.280Z,1.62
2023-07-04T04:46:57.282Z,2.00
2023-07-04T04:48:03.038Z,2.00
2023-07-04T04:49:08.562Z,2.00
2023-07-04T04:50:11.524Z,2.50
2023-07-04T04:51:16.888Z,2.50
2023-07-04T04:52:20.287Z,2.50
2023-07-04T04:53:23.256Z,2.57
2023-07-04T04:54:29.069Z,2.00
2023-07-04T04:55:34.780Z,2.50
2023-07-04T04:56:37.708Z,2.00
2023-07-04T04:57:40.646Z,2.43
2023-07-04T04:58:50.496Z,3.00
2023-07-04T04:59:53.493Z,3.00
2023-07-04T05:00:56.471Z,3.33
2023-07-04T05:01:59.674Z,3.00
2023-07-04T05:03:02.801Z,3.57
2023-07-04T05:04:08.417Z,3.67
2023-07-04T05:05:14.203Z,3.50
2023-07-04T05:06:17.127Z,4.00
2023-07-04T05:07:19.776Z,3.00
2023-07-04T05:08:25.247Z,3.00
2023-07-04T05:09:30.725Z,3.00
2023-07-04T05:10:33.616Z,6.75
2023-07-04T05:11:39.080Z,12.29
2023-07-04T05:12:42.144Z,14.50
2023-07-04T05:13:45.081Z,15.33
2023-07-04T05:14:50.608Z,16.17
2023-07-04T05:15:56.097Z,16.50
2023-07-04T05:16:59.031Z,17.25
2023-07-04T05:18:04.570Z,17.86
2023-07-04T05:19:10.283Z,17.00
2023-07-04T05:20:13.219Z,16.50
2023-07-04T05:21:16.138Z,16.86
2023-07-04T05:22:22.084Z,17.00
2023-07-04T05:23:24.984Z,18.00
2023-07-04T05:24:28.008Z,18.14
2023-07-04T05:25:30.968Z,18.00
2023-07-04T05:26:36.382Z,17.67
2023-07-04T05:27:41.797Z,16.87
2023-07-04T05:28:47.268Z,16.87
2023-07-04T05:29:52.673Z,17.75
2023-07-04T05:30:55.443Z,16.87
2023-07-04T05:31:58.134Z,16.67
2023-07-04T05:33:00.811Z,16.83
2023-07-04T05:34:06.241Z,16.57
2023-07-04T05:35:11.978Z,17.00
2023-07-04T05:36:17.421Z,17.00
2023-07-04T05:37:20.431Z,17.50
2023-07-04T05:38:23.482Z,18.14
2023-07-04T05:39:26.398Z,18.00
2023-07-04T05:40:31.863Z,17.14
2023-07-04T05:41:37.766Z,16.12
2023-07-04T05:42:43.516Z,16.50
2023-07-04T05:43:46.522Z,15.50
2023-07-04T05:44:49.532Z,16.29
2023-07-04T05:45:52.563Z,16.67
2023-07-04T05:46:57.974Z,16.00
2023-07-04T05:48:03.648Z,17.00
2023-07-04T05:49:06.598Z,16.50
2023-07-04T05:50:09.604Z,15.43
2023-07-04T05:51:12.526Z,16.00
2023-07-04T05:52:15.401Z,15.33
2023-07-04T05:53:24.045Z,16.17
2023-07-04T05:54:29.413Z,16.37
2023-07-04T05:55:33.259Z,15.50
2023-07-04T05:56:39.281Z,15.86
2023-07-04T05:57:42.145Z,15.50
2023-07-04T05:58:45.381Z,14.86
2023-07-04T05:59:48.303Z,15.00
2023-07-04T06:00:54.387Z,14.50
2023-07-04T06:02:00.448Z,15.00
2023-07-04T06:03:03.386Z,15.00
2023-07-04T06:04:06.301Z,14.57
2023-07-04T06:05:09.349Z,14.43
2023-07-04T06:06:14.793Z,14.43
2023-07-04T06:07:20.199Z,14.50
2023-07-04T06:08:23.289Z,15.00
2023-07-04T06:09:26.119Z,14.57
2023-07-04T06:10:31.906Z,14.67
2023-07-04T06:11:34.800Z,14.75
2023-07-04T06:12:37.664Z,14.67
2023-07-04T06:13:43.159Z,14.67
2023-07-04T06:14:48.583Z,14.38
2023-07-04T06:15:51.601Z,14.00
2023-07-04T06:16:54.592Z,13.14
2023-07-04T06:18:03.122Z,14.00
2023-07-04T06:19:06.084Z,14.13
2023-07-04T06:20:09.267Z,14.00
2023-07-04T06:21:12.101Z,14.43
2023-07-04T06:22:20.662Z,15.00
2023-07-04T06:23:23.707Z,15.00
2023-07-04T06:24:26.714Z,15.50
2023-07-04T06:25:29.645Z,14.67
2023-07-04T06:26:38.445Z,14.67
2023-07-04T06:27:41.583Z,14.50
2023-07-04T06:28:47.091Z,13.67
2023-07-04T06:29:50.126Z,14.00
2023-07-04T06:30:58.892Z,14.00
2023-07-04T06:32:01.819Z,13.50
2023-07-04T06:33:04.767Z,13.00
2023-07-04T06:34:10.167Z,13.33
2023-07-04T06:35:15.911Z,14.00
2023-07-04T06:36:18.799Z,14.00
2023-07-04T06:37:21.731Z,14.00
2023-07-04T06:38:27.342Z,13.57
2023-07-04T06:39:32.751Z,13.38
2023-07-04T06:40:38.206Z,13.50
2023-07-04T06:41:41.176Z,14.50
2023-07-04T06:42:46.601Z,14.14
2023-07-04T06:43:49.573Z,14.00
2023-07-04T06:44:52.528Z,14.67
2023-07-04T06:45:58.373Z,13.43
2023-07-04T06:47:03.956Z,13.88
2023-07-04T06:48:07.085Z,13.50
2023-07-04T06:49:10.030Z,13.57
2023-07-04T06:50:12.970Z,13.67
2023-07-04T06:51:18.502Z,13.00
2023-07-04T06:52:24.139Z,14.00
2023-07-04T06:53:29.671Z,14.87
2023-07-04T06:54:33.324Z,14.00
2023-07-04T06:55:36.317Z,13.86
2023-07-04T06:56:39.289Z,14.33
2023-07-04T06:57:44.700Z,14.67
2023-07-04T06:58:50.097Z,14.00
2023-07-04T06:59:55.690Z,14.00
2023-07-04T07:00:58.755Z,14.38
2023-07-04T07:02:01.666Z,14.67
2023-07-04T07:03:05.458Z,14.00
2023-07-04T07:04:11.727Z,14.00
2023-07-04T07:05:14.733Z,13.25
2023-07-04T07:06:20.540Z,14.43
2023-07-04T07:07:23.401Z,14.13
2023-07-04T07:08:27.696Z,13.67
2023-07-04T07:09:30.605Z,14.00
2023-07-04T07:10:36.319Z,15.00
2023-07-04T07:11:41.856Z,14.50
2023-07-04T07:12:47.658Z,14.13
2023-07-04T07:13:50.731Z,14.63
2023-07-04T07:14:53.868Z,15.00
2023-07-04T07:15:56.751Z,15.00
2023-07-04T07:17:08.254Z,14.14
2023-07-04T07:18:11.433Z,13.00
2023-07-04T07:19:16.324Z,13.00
2023-07-04T07:20:18.413Z,14.00
2023-07-04T07:21:23.835Z,14.00
2023-07-04T07:22:26.717Z,13.50
2023-07-04T07:23:32.265Z,13.86
2023-07-04T07:24:37.853Z,14.50
2023-07-04T07:25:43.369Z,14.50
2023-07-04T07:26:48.881Z,14.00
2023-07-04T07:27:56.061Z,13.88
2023-07-04T07:28:59.143Z,14.00
2023-07-04T07:30:04.758Z,14.86
2023-07-04T07:31:07.557Z,15.50
2023-07-04T07:32:10.494Z,15.00
2023-07-04T07:33:13.532Z,15.00
2023-07-04T07:34:19.258Z,14.33
2023-07-04T07:35:24.918Z,14.63
2023-07-04T07:36:28.004Z,15.50
2023-07-04T07:37:31.005Z,15.67
2023-07-04T07:38:36.751Z,13.29
2023-07-04T07:39:42.301Z,13.38
2023-07-04T07:40:56.886Z,14.00
2023-07-04T07:41:59.759Z,14.00
2023-07-04T07:43:02.685Z,13.71
2023-07-04T07:44:08.144Z,13.17
2023-07-04T07:45:13.603Z,14.63
2023-07-04T07:46:16.505Z,14.87
2023-07-04T07:47:19.309Z,14.33
2023-07-04T07:48:25.309Z,14.00
2023-07-04T07:49:30.933Z,14.50
2023-07-04T07:50:33.925Z,13.50
2023-07-04T07:51:36.844Z,14.00
2023-07-04T07:52:42.610Z,13.50
2023-07-04T07:53:45.510Z,13.25
2023-07-04T07:54:48.426Z,11.67
2023-07-04T07:55:53.921Z,12.57
2023-07-04T07:56:59.426Z,11.50
2023-07-04T07:58:04.934Z,10.50
2023-07-04T07:59:07.994Z,10.00
2023-07-04T08:00:10.931Z,10.33
2023-07-04T08:01:16.718Z,10.67
2023-07-04T08:02:22.279Z,11.00
2023-07-04T08:03:25.337Z,11.00
2023-07-04T08:04:28.563Z,11.00
2023-07-04T08:05:34.122Z,10.00
2023-07-04T08:06:39.941Z,10.50
2023-07-04T08:07:42.801Z,10.00
2023-07-04T08:08:51.330Z,10.43
2023-07-04T08:09:54.297Z,12.50
2023-07-04T08:10:59.725Z,13.67
2023-07-04T08:12:04.129Z,11.50
2023-07-04T08:13:06.875Z,12.00
2023-07-04T08:14:12.731Z,13.14
2023-07-04T08:15:18.425Z,12.50
2023-07-04T08:16:21.509Z,12.25
2023-07-04T08:17:24.488Z,12.71
2023-07-04T08:18:29.983Z,13.00
2023-07-04T08:19:35.468Z,14.25
2023-07-04T08:20:38.411Z,14.63
2023-07-04T08:21:41.137Z,14.86
2023-07-04T08:24:02.804Z,14.63
2023-07-04T08:25:05.760Z,13.33
2023-07-04T08:26:08.790Z,15.00
2023-07-04T08:27:11.879Z,15.00
2023-07-04T08:28:17.665Z,15.86
2023-07-04T08:29:20.616Z,15.88
2023-07-04T08:30:23.807Z,14.86
2023-07-04T08:31:29.347Z,14.57
2023-07-04T08:32:34.974Z,13.88
2023-07-04T08:33:40.600Z,13.50
2023-07-04T08:34:43.530Z,12.00
2023-07-04T08:35:46.232Z,12.00
2023-07-04T08:36:52.019Z,13.00
2023-07-04T08:37:54.959Z,11.12
2023-07-04T08:38:57.925Z,10.43
2023-07-04T08:40:00.651Z,11.00
2023-07-04T08:41:06.407Z,11.17
2023-07-04T08:42:11.940Z,11.38
2023-07-04T08:43:14.871Z,10.13
2023-07-04T08:44:17.746Z,10.00
2023-07-04T08:45:23.565Z,10.17
2023-07-04T08:46:29.114Z,11.00
2023-07-04T08:47:34.653Z,11.00
2023-07-04T08:48:37.672Z,10.00
2023-07-04T08:49:40.642Z,9.83
2023-07-04T08:50:49.132Z,10.57
2023-07-04T08:51:51.997Z,10.50
2023-07-04T08:52:57.473Z,10.83
2023-07-04T08:54:00.570Z,10.00
2023-07-04T08:55:06.092Z,10.00
2023-07-04T08:56:11.868Z,10.00
2023-07-04T08:57:14.789Z,10.00
2023-07-04T08:58:17.689Z,9.00
2023-07-04T08:59:23.212Z,9.43
2023-07-04T09:00:28.685Z,9.88
2023-07-04T09:01:34.172Z,9.50
2023-07-04T09:02:37.250Z,9.88
2023-07-04T09:03:40.558Z,10.00
2023-07-04T09:04:49.228Z,10.43
2023-07-04T09:05:52.161Z,10.50
2023-07-04T09:06:55.102Z,9.86
2023-07-04T09:08:00.529Z,10.00
2023-07-04T09:09:05.974Z,10.50
2023-07-04T09:10:08.921Z,10.00
2023-07-04T09:11:11.814Z,9.50
2023-07-04T09:12:14.678Z,10.71
2023-07-04T09:13:20.539Z,10.00
2023-07-04T09:14:26.436Z,10.00
2023-07-04T09:15:29.382Z,10.63
2023-07-04T09:16:32.315Z,9.14
2023-07-04T09:17:35.227Z,8.33
2023-07-04T09:18:43.982Z,9.00
2023-07-04T09:19:46.701Z,9.50
2023-07-04T09:20:49.492Z,10.00
2023-07-04T09:21:52.182Z,9.83
2023-07-04T09:22:57.461Z,10.00
2023-07-04T09:24:03.124Z,9.50
2023-07-04T09:25:08.718Z,9.00
2023-07-04T09:26:11.384Z,9.00
2023-07-04T09:27:14.175Z,9.33
2023-07-04T09:28:19.925Z,10.00
2023-07-04T09:29:25.332Z,10.00
2023-07-04T09:31:33.986Z,8.50
2023-07-04T09:32:36.958Z,8.33
2023-07-04T09:33:42.274Z,7.86
2023-07-04T09:34:50.734Z,8.63
2023-07-04T09:35:55.961Z,9.00
2023-07-04T09:36:58.895Z,9.00
2023-07-04T09:38:01.839Z,8.33
2023-07-04T09:39:07.585Z,8.86
2023-07-04T09:40:10.650Z,9.50
2023-07-04T09:41:16.088Z,8.67
2023-07-04T09:42:41.939Z,8.88
2023-07-04T09:43:34.196Z,9.00
2023-07-04T09:44:37.351Z,8.00
2023-07-04T09:45:40.370Z,8.33
2023-07-04T09:46:45.968Z,9.33
2023-07-04T09:47:51.502Z,9.25
2023-07-04T09:48:57.005Z,8.38
2023-07-04T09:49:59.916Z,8.50
2023-07-04T09:51:08.458Z,8.67
2023-07-04T09:52:13.887Z,8.50
2023-07-04T09:53:16.934Z,8.50
2023-07-04T09:54:19.860Z,7.71
2023-07-04T09:55:25.599Z,8.43
2023-07-04T09:56:28.616Z,8.00
2023-07-04T09:57:31.546Z,8.67
2023-07-04T09:58:37.026Z,9.00
2023-07-04T09:59:42.749Z,8.13
2023-07-04T10:00:45.703Z,7.50
2023-07-04T10:01:48.751Z,7.57
2023-07-04T10:02:51.852Z,8.33
2023-07-04T10:04:00.374Z,8.57
2023-07-04T10:05:03.312Z,7.87
2023-07-04T10:06:06.247Z,8.00
2023-07-04T10:07:09.478Z,7.86
2023-07-04T10:08:15.035Z,8.00
2023-07-04T10:09:19.378Z,7.00
2023-07-04T10:10:22.224Z,6.62
2023-07-04T10:11:27.878Z,6.83
2023-07-04T10:12:33.552Z,7.37
2023-07-04T10:13:39.577Z,7.87
2023-07-04T10:14:42.524Z,7.37
2023-07-04T10:15:45.424Z,8.00
2023-07-04T10:16:51.041Z,7.86
2023-07-04T10:17:53.981Z,7.50
2023-07-04T10:18:57.006Z,7.33
2023-07-04T10:20:08.913Z,16.00
2023-07-04T10:21:12.302Z,4.14
2023-07-04T10:22:15.798Z,7.00
2023-07-04T10:23:19.168Z,7.00
2023-07-04T10:24:24.117Z,6.33
2023-07-04T10:25:27.179Z,6.50
2023-07-04T10:26:30.565Z,6.43
2023-07-04T10:27:34.049Z,7.00
2023-07-04T10:28:37.749Z,7.00
2023-07-04T10:29:41.234Z,6.50
2023-07-04T10:30:44.630Z,6.86
2023-07-04T10:31:48.027Z,6.86
2023-07-04T10:32:51.382Z,6.43
2023-07-04T10:33:54.785Z,7.00
2023-07-04T10:34:58.080Z,7.00
2023-07-04T10:36:01.179Z,6.57
2023-07-04T10:37:04.742Z,6.00
2023-07-04T10:38:08.026Z,6.00
2023-07-04T10:39:11.243Z,6.43
2023-07-04T10:40:14.453Z,6.57
2023-07-04T10:41:17.571Z,6.57
2023-07-04T10:42:20.955Z,7.43
2023-07-04T10:43:24.548Z,6.71
2023-07-04T10:44:27.930Z,6.86
2023-07-04T10:45:31.132Z,7.00
2023-07-04T10:46:34.429Z,6.86
2023-07-04T10:47:37.710Z,7.00
2023-07-04T10:48:40.771Z,6.57
2023-07-04T10:49:44.049Z,6.71
2023-07-04T10:50:47.146Z,7.00
2023-07-04T10:51:50.409Z,7.17
2023-07-04T10:52:53.600Z,7.00
2023-07-04T10:53:56.792Z,6.67
2023-07-04T10:54:59.852Z,6.00
2023-07-04T10:56:03.276Z,6.00
2023-07-04T10:57:06.320Z,6.33
2023-07-04T10:58:09.501Z,6.17
2023-07-04T10:59:12.757Z,5.43
2023-07-04T11:00:15.967Z,6.43
2023-07-04T11:01:19.203Z,7.00
2023-07-04T11:02:22.494Z,7.00
2023-07-04T11:03:25.797Z,6.57
2023-07-04T11:04:29.105Z,6.14
2023-07-04T11:05:32.308Z,7.00
2023-07-04T11:06:35.465Z,7.00
2023-07-04T11:07:38.746Z,6.57
2023-07-04T11:08:41.925Z,6.00
2023-07-04T11:09:45.114Z,7.00
2023-07-04T11:10:48.187Z,6.67
2023-07-04T11:11:51.541Z,6.50
2023-07-04T11:12:54.682Z,6.14
2023-07-04T11:13:58.006Z,7.00
2023-07-04T11:15:01.227Z,7.00
2023-07-04T11:16:04.296Z,6.57
2023-07-04T11:17:07.631Z,6.33
2023-07-04T11:18:10.929Z,6.14
2023-07-04T11:19:14.051Z,5.57
2023-07-04T11:20:17.272Z,6.43
2023-07-04T11:21:20.332Z,7.00
2023-07-04T11:22:23.819Z,7.00
2023-07-04T11:23:27.098Z,7.00
2023-07-04T11:24:30.484Z,7.00
2023-07-04T11:25:34.014Z,6.57
2023-07-04T11:26:37.156Z,6.43
2023-07-04T11:27:40.233Z,7.00
2023-07-04T11:28:43.482Z,6.57
2023-07-04T11:29:46.772Z,6.00
2023-07-04T11:30:50.171Z,6.00
2023-07-04T11:31:53.480Z,6.43
2023-07-04T11:32:56.808Z,6.57
2023-07-04T11:34:00.043Z,5.57
2023-07-04T11:35:03.119Z,5.86
2023-07-04T11:36:06.411Z,7.00
2023-07-04T11:37:09.601Z,7.00
2023-07-04T11:38:12.667Z,6.67
2023-07-04T11:39:15.875Z,6.14
2023-07-04T11:40:19.169Z,6.57
2023-07-04T11:41:22.318Z,6.86
2023-07-04T11:42:25.511Z,7.00
2023-07-04T11:43:28.779Z,7.00
2023-07-04T11:44:32.072Z,6.71
2023-07-04T11:45:35.349Z,6.43
2023-07-04T11:46:38.568Z,6.67
2023-07-04T11:47:41.758Z,6.50
2023-07-04T11:48:44.895Z,7.00
2023-07-04T11:49:48.280Z,7.00
2023-07-04T11:50:51.835Z,7.33
2023-07-04T11:51:55.571Z,7.14
2023-07-04T11:52:58.773Z,8.00
2023-07-04T11:54:02.030Z,7.57
2023-07-04T11:55:05.225Z,7.00
2023-07-04T11:56:08.302Z,7.00
2023-07-04T11:57:16.147Z,7.00
2023-07-04T11:58:15.889Z,7.00
2023-07-04T11:59:19.053Z,6.33
2023-07-04T12:00:22.168Z,7.00
2023-07-04T12:01:25.225Z,7.43
2023-07-04T12:02:28.577Z,7.57
2023-07-04T12:03:32.115Z,7.00
2023-07-04T12:04:35.542Z,7.00
2023-07-04T12:05:38.777Z,7.43
2023-07-04T12:06:42.064Z,7.57
2023-07-04T12:07:45.260Z,7.57
2023-07-04T12:08:48.427Z,7.43
2023-07-04T12:09:51.618Z,7.00
2023-07-04T12:10:55.009Z,7.17
2023-07-04T12:11:58.373Z,7.50
2023-07-04T12:13:01.559Z,6.71
2023-07-04T12:14:04.739Z,7.00
2023-07-04T12:15:07.946Z,6.50
2023-07-04T12:16:11.268Z,6.00
2023-07-04T12:17:14.392Z,5.14
2023-07-04T12:18:17.576Z,5.33
2023-07-04T12:19:20.751Z,6.57
2023-07-04T12:20:23.991Z,5.57
2023-07-04T12:21:27.216Z,5.71
2023-07-04T12:22:30.502Z,5.57
2023-07-04T12:23:33.869Z,5.00
2023-07-04T12:24:36.927Z,5.00
2023-07-04T12:25:40.006Z,5.00
2023-07-04T12:26:43.084Z,5.00
2023-07-04T12:27:46.308Z,5.00
2023-07-04T12:28:49.823Z,4.57
2023-07-04T12:30:03.556Z,5.43
2023-07-04T12:30:58.282Z,4.50
2023-07-04T12:32:01.840Z,5.00
2023-07-04T12:33:07.532Z,4.86
2023-07-04T12:34:10.242Z,5.37
2023-07-04T12:35:13.812Z,6.00
2023-07-04T12:36:17.094Z,6.43
2023-07-04T12:37:20.392Z,6.57
2023-07-04T12:38:25.367Z,6.43
2023-07-04T12:39:28.285Z,6.12
2023-07-04T12:40:31.587Z,6.00
2023-07-04T12:41:34.957Z,5.57
2023-07-04T12:42:38.331Z,5.86
2023-07-04T12:44:46.452Z,5.50
2023-07-04T12:50:08.060Z,5.50
2023-07-04T12:51:11.672Z,6.00
2023-07-04T12:52:15.260Z,5.43
2023-07-04T12:53:18.641Z,5.57
2023-07-04T12:54:22.245Z,5.43
2023-07-04T12:55:25.525Z,5.00
2023-07-04T12:56:28.900Z,5.43
2023-07-04T12:57:32.098Z,6.00
2023-07-04T12:58:35.285Z,6.00
2023-07-04T12:59:38.449Z,5.57
2023-07-04T13:00:41.747Z,5.00
2023-07-04T13:01:44.987Z,5.00
2023-07-04T13:02:48.211Z,4.71
2023-07-04T13:03:51.549Z,5.57
2023-07-04T13:04:54.712Z,5.00
2023-07-04T13:05:58.085Z,5.00
2023-07-04T13:07:01.262Z,5.00
2023-07-04T13:08:04.420Z,4.67
2023-07-04T13:09:07.408Z,4.33
2023-07-04T13:10:10.699Z,5.43
2023-07-04T13:11:14.072Z,5.57
2023-07-04T13:12:17.458Z,4.29
2023-07-04T13:13:22.478Z,4.43
2023-07-04T13:14:25.562Z,4.50
2023-07-04T13:15:28.950Z,4.86
2023-07-04T13:16:32.390Z,5.43
2023-07-04T13:17:35.774Z,5.14
2023-07-04T13:18:39.209Z,4.43
2023-07-04T13:19:44.309Z,5.00
2023-07-04T13:20:47.023Z,5.00
2023-07-04T13:21:50.683Z,4.57
2023-07-04T13:26:07.552Z,4.00
2023-07-04T13:27:14.349Z,4.43
2023-07-04T13:30:24.562Z,4.75
2023-07-04T13:33:36.943Z,4.50
2023-07-04T13:34:40.354Z,5.29
2023-07-04T13:35:43.840Z,4.00
2023-07-04T13:36:47.332Z,4.43
2023-07-04T13:39:49.867Z,4.50
2023-07-04T13:39:59.868Z,5.00
2023-07-04T13:41:03.570Z,4.86
2023-07-04T13:42:07.022Z,5.00
2023-07-04T13:45:19.198Z,4.50
2023-07-04T13:46:22.655Z,4.57
2023-07-04T13:47:26.125Z,4.43
2023-07-04T13:48:29.505Z,5.00
2023-07-04T13:49:32.984Z,5.00
2023-07-04T13:50:36.399Z,5.43
2023-07-04T13:51:39.763Z,5.57
2023-07-04T13:52:43.063Z,5.00
2023-07-04T13:53:46.225Z,5.29
2023-07-04T13:54:49.508Z,4.86
2023-07-04T13:55:52.795Z,5.00
2023-07-04T13:56:56.077Z,5.00
2023-07-04T13:57:59.467Z,4.57
2023-07-04T13:59:02.749Z,5.00
2023-07-04T14:00:07.539Z,5.00
2023-07-04T14:06:38.826Z,4.50
2023-07-04T14:07:42.281Z,5.00
2023-07-04T14:08:45.351Z,5.00
2023-07-04T14:09:48.402Z,5.00
2023-07-04T14:10:51.573Z,5.00
2023-07-04T14:11:54.872Z,5.00
2023-07-04T14:12:58.353Z,5.00
2023-07-04T14:14:07.843Z,4.57
2023-07-04T14:20:28.109Z,4.00
2023-07-04T14:21:31.861Z,4.00
2023-07-04T14:22:35.233Z,4.00
2023-07-04T14:23:38.548Z,4.00
2023-07-04T14:24:41.813Z,4.00
2023-07-04T14:25:46.388Z,3.57
2023-07-04T14:26:49.455Z,3.12
2023-07-04T14:27:52.851Z,3.43
2023-07-04T14:28:56.013Z,3.29
2023-07-04T14:29:59.209Z,3.43
2023-07-04T14:31:02.549Z,3.71
2023-07-04T14:32:05.755Z,3.43
2023-07-04T14:33:09.192Z,3.57
2023-07-04T14:34:12.639Z,3.00
2023-07-04T14:35:15.819Z,2.57